METAR Data
IDs: Format: Raw Decoded Include TAF

Data at: 0105 UTC 06 Dec 2019

KDYB 060055Z AUTO 00000KT 10SM OVC020 06/04 A3018 RMK AO2
KDYB 060035Z AUTO 00000KT 10SM OVC019 07/04 A3017 RMK AO2
KDYB 060015Z AUTO 00000KT 10SM OVC020 08/03 A3016 RMK AO2
KDYB 052355Z AUTO 00000KT 10SM BKN021 BKN025 BKN030 08/04 A3016 RMK AO2
KDYB 052335Z AUTO 00000KT 10SM SCT025 SCT029 SCT035 09/03 A3015 RMK AO2
KDYB 052315Z AUTO 00000KT 10SM FEW025 FEW030 SCT036 10/04 A3015 RMK AO2
KDYB 052255Z AUTO 00000KT 10SM FEW029 FEW037 11/04 A3013 RMK AO2
KDYB 052235Z AUTO 00000KT 10SM CLR 12/03 A3012 RMK AO2
KDYB 052215Z AUTO 00000KT 10SM CLR 15/02 A3012 RMK AO2
KDYB 052155Z AUTO 00000KT 10SM CLR 17/02 A3011 RMK AO2
KDYB 052135Z AUTO 00000KT 10SM CLR 17/M01 A3011 RMK AO2
KDYB 052115Z AUTO 00000KT 10SM CLR 19/M01 A3010 RMK AO2
KDYB 052055Z AUTO 00000KT 10SM CLR 19/M02 A3009 RMK AO2
KDYB 052035Z AUTO 00000KT 10SM CLR 19/M02 A3008 RMK AO2
KDYB 052015Z AUTO 00000KT 10SM CLR 19/M02 A3008 RMK AO2
KDYB 051955Z AUTO 00000KT 10SM CLR 18/M02 A3007 RMK AO2
KDYB 051935Z AUTO 35004KT 10SM CLR 18/M02 A3007 RMK AO2
KDYB 051915Z AUTO VRB04KT 10SM CLR 18/M03 A3007 RMK AO2
KDYB 051855Z AUTO VRB05KT 10SM CLR 18/M03 A3007 RMK AO2
KDYB 051835Z AUTO 04005KT 10SM CLR 18/M02 A3007 RMK AO2
KDYB 051815Z AUTO 35006KT 10SM CLR 18/M02 A3008 RMK AO2
KDYB 051755Z AUTO VRB04G11KT 10SM CLR 17/M02 A3008 RMK AO2
KDYB 051735Z AUTO VRB03KT 10SM CLR 17/M00 A3009 RMK AO2
KDYB 051715Z AUTO 03005KT 10SM CLR 17/M01 A3009 RMK AO2
KDYB 051655Z AUTO 35004KT 10SM CLR 16/M01 A3010 RMK AO2
KDYB 051635Z AUTO 01006KT 10SM CLR 16/M01 A3011 RMK AO2
KDYB 051615Z AUTO 01008KT 10SM CLR 16/M02 A3011 RMK AO2
KDYB 051555Z AUTO 01010G16KT 10SM CLR 15/M02 A3011 RMK AO2
KDYB 051535Z AUTO 36009KT 10SM CLR 15/M00 A3011 RMK AO2
KDYB 051515Z AUTO VRB05KT 10SM CLR 13/02 A3011 RMK AO2
KDYB 051455Z AUTO 36007KT 10SM CLR 12/02 A3010 RMK AO2
KDYB 051435Z AUTO VRB05KT 10SM CLR 11/02 A3009 RMK AO2
KDYB 051415Z AUTO VRB03KT 10SM CLR 10/02 A3008 RMK AO2
KDYB 050015Z AUTO 00000KT 10SM CLR 09/04 A2984 RMK AO2
KDYB 042355Z AUTO 26004KT 10SM FEW036 09/04 A2983 RMK AO2
KDYB 042335Z AUTO 00000KT 10SM SCT033 SCT038 09/04 A2982 RMK AO2
KDYB 042315Z AUTO 00000KT 10SM FEW027 SCT034 09/03 A2982 RMK AO2
KDYB 042255Z AUTO 24003KT 10SM FEW028 SCT034 11/03 A2981 RMK AO2
KDYB 042235Z AUTO 00000KT 10SM CLR 12/02 A2980 RMK AO2
KDYB 042215Z AUTO 00000KT 10SM CLR 13/01 A2979 RMK AO2
KDYB 042155Z AUTO VRB06KT 10SM CLR 15/01 A2979 RMK AO2
KDYB 042135Z AUTO 27007KT 10SM CLR 16/01 A2978 RMK AO2
KDYB 042115Z AUTO 27006G11KT 10SM CLR 16/01 A2977 RMK AO2
KDYB 042055Z AUTO 29007KT 10SM CLR 16/01 A2977 RMK AO2
KDYB 042035Z AUTO 28007G12KT 10SM CLR 16/01 A2977 RMK AO2
KDYB 042015Z AUTO 26010KT 10SM CLR 16/01 A2977 RMK AO2
KDYB 041955Z AUTO 28008G14KT 250V310 10SM CLR 16/00 A2977 RMK AO2
KDYB 041935Z AUTO 27008G17KT 230V300 10SM CLR 16/00 A2977 RMK AO2
KDYB 041915Z AUTO 27011G16KT 10SM CLR 15/M00 A2977 RMK AO2
KDYB 041855Z AUTO 26008G13KT 10SM CLR 16/00 A2976 RMK AO2
KDYB 041835Z AUTO 24006G12KT 10SM CLR 15/M00 A2977 RMK AO2
KDYB 041815Z AUTO VRB05G10KT 10SM CLR 15/M01 A2977 RMK AO2
KDYB 041755Z AUTO 27005KT 10SM CLR 14/M01 A2979 RMK AO2
KDYB 041735Z AUTO 00000KT 10SM CLR 14/00 A2979 RMK AO2
KDYB 041715Z AUTO VRB04KT 10SM CLR 13/00 A2981 RMK AO2
KDYB 041655Z AUTO 00000KT 10SM CLR 12/01 A2982 RMK AO2
KDYB 041635Z AUTO VRB04KT 10SM CLR 12/01 A2983 RMK AO2
KDYB 041615Z AUTO 29006KT 10SM CLR 11/01 A2985 RMK AO2
KDYB 041555Z AUTO 31005KT 10SM CLR 10/01 A2985 RMK AO2
KDYB 041535Z AUTO 27006KT 10SM CLR 10/01 A2986 RMK AO2
KDYB 041515Z AUTO 31006KT 10SM CLR 09/01 A2987 RMK AO2
KDYB 041455Z AUTO 29006G11KT 10SM CLR 08/01 A2986 RMK AO2
KDYB 041435Z AUTO 28005KT 10SM CLR 07/01 A2987 RMK AO2
KDYB 041415Z AUTO 28008KT 10SM -UP CLR 06/01 A2986 RMK AO2
KDYB 041355Z AUTO 28006KT 10SM -UP CLR 05/01 A2984 RMK AO2
KDYB 041335Z AUTO 28006KT 10SM -UP CLR 04/01 A2985 RMK AO2
KDYB 041315Z AUTO 27004KT 10SM -UP CLR 03/01 A2984 RMK AO2